sensor_id;sensor_type;location;lat;lon;timestamp;temperature;humidity
38456;DHT22;24237;50.106;20.014;2022-09-09T00:02:03;20.60;99.90
38456;DHT22;24237;50.106;20.014;2022-09-09T00:07:15;20.90;99.90
38456;DHT22;24237;50.106;20.014;2022-09-09T00:09:53;20.80;99.90
38456;DHT22;24237;50.106;20.014;2022-09-09T00:12:40;20.70;99.90
38456;DHT22;24237;50.106;20.014;2022-09-09T00:15:22;20.70;99.90
38456;DHT22;24237;50.106;20.014;2022-09-09T00:20:47;20.40;99.90
38456;DHT22;24237;50.106;20.014;2022-09-09T00:23:25;20.50;99.90
38456;DHT22;24237;50.106;20.014;2022-09-09T00:26:23;20.30;99.90
38456;DHT22;24237;50.106;20.014;2022-09-09T00:29:10;20.40;99.90
38456;DHT22;24237;50.106;20.014;2022-09-09T00:31:39;20.40;99.90
38456;DHT22;24237;50.106;20.014;2022-09-09T00:34:15;20.40;99.90
38456;DHT22;24237;50.106;20.014;2022-09-09T00:36:42;20.50;99.90
38456;DHT22;24237;50.106;20.014;2022-09-09T00:42:48;20.30;99.90
38456;DHT22;24237;50.106;20.014;2022-09-09T00:48:20;20.60;99.90
38456;DHT22;24237;50.106;20.014;2022-09-09T00:51:01;20.60;99.90
38456;DHT22;24237;50.106;20.014;2022-09-09T00:56:37;20.60;99.90
38456;DHT22;24237;50.106;20.014;2022-09-09T00:59:32;20.50;99.90
38456;DHT22;24237;50.106;20.014;2022-09-09T01:02:02;20.30;99.90
38456;DHT22;24237;50.106;20.014;2022-09-09T01:04:39;20.20;99.90
38456;DHT22;24237;50.106;20.014;2022-09-09T01:07:17;20.20;99.90
38456;DHT22;24237;50.106;20.014;2022-09-09T01:09:57;20.40;99.90
38456;DHT22;24237;50.106;20.014;2022-09-09T01:12:26;20.30;99.90
38456;DHT22;24237;50.106;20.014;2022-09-09T01:15:07;20.20;99.90
38456;DHT22;24237;50.106;20.014;2022-09-09T01:26:12;20.20;99.90
38456;DHT22;24237;50.106;20.014;2022-09-09T01:28:40;20.10;99.90
38456;DHT22;24237;50.106;20.014;2022-09-09T01:31:09;20.10;99.90
38456;DHT22;24237;50.106;20.014;2022-09-09T01:33:36;20.20;99.90
38456;DHT22;24237;50.106;20.014;2022-09-09T01:36:06;20.10;99.90
38456;DHT22;24237;50.106;20.014;2022-09-09T01:38:36;20.20;99.90
38456;DHT22;24237;50.106;20.014;2022-09-09T01:41:03;20.20;99.90
38456;DHT22;24237;50.106;20.014;2022-09-09T01:43:32;20.30;99.90
38456;DHT22;24237;50.106;20.014;2022-09-09T01:46:00;20.20;99.90
38456;DHT22;24237;50.106;20.014;2022-09-09T01:48:27;20.20;99.90
38456;DHT22;24237;50.106;20.014;2022-09-09T01:50:53;20.10;99.90
38456;DHT22;24237;50.106;20.014;2022-09-09T01:53:20;20.10;99.90
38456;DHT22;24237;50.106;20.014;2022-09-09T01:56:08;20.10;99.90
38456;DHT22;24237;50.106;20.014;2022-09-09T02:06:56;20.00;99.90
38456;DHT22;24237;50.106;20.014;2022-09-09T02:09:30;20.10;99.90
38456;DHT22;24237;50.106;20.014;2022-09-09T02:12:02;19.90;99.90
38456;DHT22;24237;50.106;20.014;2022-09-09T02:14:36;20.00;99.90
38456;DHT22;24237;50.106;20.014;2022-09-09T02:17:16;20.10;99.90
38456;DHT22;24237;50.106;20.014;2022-09-09T02:20:02;20.10;99.90
38456;DHT22;24237;50.106;20.014;2022-09-09T02:22:35;20.10;99.90
38456;DHT22;24237;50.106;20.014;2022-09-09T02:25:07;20.30;99.90
38456;DHT22;24237;50.106;20.014;2022-09-09T02:27:34;20.20;99.90
38456;DHT22;24237;50.106;20.014;2022-09-09T02:30:04;20.10;99.90
38456;DHT22;24237;50.106;20.014;2022-09-09T02:32:32;20.10;99.90
38456;DHT22;24237;50.106;20.014;2022-09-09T02:35:28;20.00;99.90
38456;DHT22;24237;50.106;20.014;2022-09-09T02:38:00;19.90;99.90
38456;DHT22;24237;50.106;20.014;2022-09-09T02:40:27;19.90;99.90
38456;DHT22;24237;50.106;20.014;2022-09-09T02:42:55;20.00;99.90
38456;DHT22;24237;50.106;20.014;2022-09-09T02:45:25;19.80;99.90
38456;DHT22;24237;50.106;20.014;2022-09-09T02:48:09;19.90;99.90
38456;DHT22;24237;50.106;20.014;2022-09-09T02:51:10;19.70;99.90
38456;DHT22;24237;50.106;20.014;2022-09-09T02:53:46;19.80;99.90
38456;DHT22;24237;50.106;20.014;2022-09-09T02:56:18;19.70;99.90
38456;DHT22;24237;50.106;20.014;2022-09-09T02:58:46;19.50;99.90
38456;DHT22;24237;50.106;20.014;2022-09-09T03:01:12;19.40;99.90
38456;DHT22;24237;50.106;20.014;2022-09-09T03:03:38;19.50;99.90
38456;DHT22;24237;50.106;20.014;2022-09-09T03:06:10;19.30;99.90
38456;DHT22;24237;50.106;20.014;2022-09-09T03:08:37;19.30;99.90
38456;DHT22;24237;50.106;20.014;2022-09-09T03:11:03;19.40;99.90
38456;DHT22;24237;50.106;20.014;2022-09-09T03:13:28;19.60;99.90
38456;DHT22;24237;50.106;20.014;2022-09-09T03:15:54;19.50;99.90
38456;DHT22;24237;50.106;20.014;2022-09-09T03:18:20;19.50;99.90
38456;DHT22;24237;50.106;20.014;2022-09-09T03:20:46;19.50;99.90
38456;DHT22;24237;50.106;20.014;2022-09-09T03:23:14;19.40;99.90
38456;DHT22;24237;50.106;20.014;2022-09-09T03:25:49;19.30;99.90
38456;DHT22;24237;50.106;20.014;2022-09-09T03:28:15;19.10;99.90
38456;DHT22;24237;50.106;20.014;2022-09-09T03:30:40;19.20;99.90
38456;DHT22;24237;50.106;20.014;2022-09-09T03:33:06;19.40;99.90
38456;DHT22;24237;50.106;20.014;2022-09-09T03:35:32;19.20;99.90
38456;DHT22;24237;50.106;20.014;2022-09-09T03:37:57;19.00;99.90
38456;DHT22;24237;50.106;20.014;2022-09-09T03:40:25;19.00;99.90
38456;DHT22;24237;50.106;20.014;2022-09-09T03:42:51;19.10;99.90
38456;DHT22;24237;50.106;20.014;2022-09-09T03:45:17;19.20;99.90
38456;DHT22;24237;50.106;20.014;2022-09-09T03:47:48;19.10;99.90
38456;DHT22;24237;50.106;20.014;2022-09-09T03:50:15;19.30;99.90
38456;DHT22;24237;50.106;20.014;2022-09-09T03:52:41;19.30;99.90
38456;DHT22;24237;50.106;20.014;2022-09-09T03:55:07;19.20;99.90
38456;DHT22;24237;50.106;20.014;2022-09-09T03:57:34;19.30;99.90
38456;DHT22;24237;50.106;20.014;2022-09-09T04:00:08;19.30;99.90
38456;DHT22;24237;50.106;20.014;2022-09-09T04:02:34;19.20;99.90
38456;DHT22;24237;50.106;20.014;2022-09-09T04:04:59;19.30;99.90
38456;DHT22;24237;50.106;20.014;2022-09-09T04:07:26;19.00;99.90
38456;DHT22;24237;50.106;20.014;2022-09-09T04:09:53;19.20;99.90
38456;DHT22;24237;50.106;20.014;2022-09-09T04:12:22;19.20;99.90
38456;DHT22;24237;50.106;20.014;2022-09-09T04:14:48;19.10;99.90
38456;DHT22;24237;50.106;20.014;2022-09-09T04:17:13;19.00;99.90
38456;DHT22;24237;50.106;20.014;2022-09-09T04:19:40;19.00;99.90
38456;DHT22;24237;50.106;20.014;2022-09-09T04:22:07;19.00;99.90
38456;DHT22;24237;50.106;20.014;2022-09-09T04:24:33;19.00;99.90
38456;DHT22;24237;50.106;20.014;2022-09-09T04:26:59;19.10;99.90
38456;DHT22;24237;50.106;20.014;2022-09-09T04:29:36;19.10;99.90
38456;DHT22;24237;50.106;20.014;2022-09-09T04:32:02;19.00;99.90
38456;DHT22;24237;50.106;20.014;2022-09-09T04:34:38;18.80;99.90
38456;DHT22;24237;50.106;20.014;2022-09-09T04:37:04;18.80;99.90
38456;DHT22;24237;50.106;20.014;2022-09-09T04:39:29;18.80;99.90
38456;DHT22;24237;50.106;20.014;2022-09-09T04:41:55;18.90;99.90
38456;DHT22;24237;50.106;20.014;2022-09-09T04:44:27;19.20;99.90
38456;DHT22;24237;50.106;20.014;2022-09-09T04:46:52;19.20;99.90
38456;DHT22;24237;50.106;20.014;2022-09-09T04:49:21;19.20;99.90
38456;DHT22;24237;50.106;20.014;2022-09-09T04:51:49;19.40;99.90
38456;DHT22;24237;50.106;20.014;2022-09-09T04:54:14;19.20;99.90
38456;DHT22;24237;50.106;20.014;2022-09-09T04:56:40;19.20;99.90
38456;DHT22;24237;50.106;20.014;2022-09-09T04:59:07;19.40;99.90
38456;DHT22;24237;50.106;20.014;2022-09-09T05:01:35;19.40;99.90
38456;DHT22;24237;50.106;20.014;2022-09-09T05:04:02;19.50;99.90
38456;DHT22;24237;50.106;20.014;2022-09-09T05:06:30;19.70;99.90
38456;DHT22;24237;50.106;20.014;2022-09-09T05:08:57;19.50;99.90
38456;DHT22;24237;50.106;20.014;2022-09-09T05:11:30;19.70;99.90
38456;DHT22;24237;50.106;20.014;2022-09-09T05:13:57;19.60;99.90
38456;DHT22;24237;50.106;20.014;2022-09-09T05:16:23;19.90;99.90
38456;DHT22;24237;50.106;20.014;2022-09-09T05:18:49;19.70;99.90
38456;DHT22;24237;50.106;20.014;2022-09-09T05:21:16;19.80;99.90
38456;DHT22;24237;50.106;20.014;2022-09-09T05:23:44;19.70;99.90
38456;DHT22;24237;50.106;20.014;2022-09-09T05:26:15;19.70;99.90
38456;DHT22;24237;50.106;20.014;2022-09-09T05:28:44;19.70;99.90
38456;DHT22;24237;50.106;20.014;2022-09-09T05:31:11;19.60;99.90
38456;DHT22;24237;50.106;20.014;2022-09-09T05:33:38;19.90;99.90
38456;DHT22;24237;50.106;20.014;2022-09-09T05:36:07;19.90;99.90
38456;DHT22;24237;50.106;20.014;2022-09-09T05:38:34;20.10;99.90
38456;DHT22;24237;50.106;20.014;2022-09-09T05:41:00;19.90;99.90
38456;DHT22;24237;50.106;20.014;2022-09-09T05:43:28;20.00;99.90
38456;DHT22;24237;50.106;20.014;2022-09-09T05:46:03;19.90;99.90
38456;DHT22;24237;50.106;20.014;2022-09-09T05:48:50;19.90;99.90
38456;DHT22;24237;50.106;20.014;2022-09-09T05:51:21;20.00;99.90
38456;DHT22;24237;50.106;20.014;2022-09-09T05:53:55;20.10;99.90
38456;DHT22;24237;50.106;20.014;2022-09-09T05:56:25;20.20;99.90
38456;DHT22;24237;50.106;20.014;2022-09-09T05:58:54;20.20;99.90
38456;DHT22;24237;50.106;20.014;2022-09-09T06:01:22;20.00;99.90
38456;DHT22;24237;50.106;20.014;2022-09-09T06:03:50;20.20;99.90
38456;DHT22;24237;50.106;20.014;2022-09-09T06:06:27;20.00;99.90
38456;DHT22;24237;50.106;20.014;2022-09-09T06:08:56;20.20;99.90
38456;DHT22;24237;50.106;20.014;2022-09-09T06:11:27;20.20;99.90
38456;DHT22;24237;50.106;20.014;2022-09-09T06:14:02;20.50;99.90
38456;DHT22;24237;50.106;20.014;2022-09-09T06:16:29;20.40;99.90
38456;DHT22;24237;50.106;20.014;2022-09-09T06:19:29;20.60;99.90
38456;DHT22;24237;50.106;20.014;2022-09-09T06:21:54;20.50;99.90
38456;DHT22;24237;50.106;20.014;2022-09-09T06:24:20;20.60;99.90
38456;DHT22;24237;50.106;20.014;2022-09-09T06:26:45;20.40;99.90
38456;DHT22;24237;50.106;20.014;2022-09-09T06:29:11;20.40;99.90
38456;DHT22;24237;50.106;20.014;2022-09-09T06:31:42;20.40;99.90
38456;DHT22;24237;50.106;20.014;2022-09-09T06:34:09;20.40;99.90
38456;DHT22;24237;50.106;20.014;2022-09-09T06:36:36;20.70;99.90
38456;DHT22;24237;50.106;20.014;2022-09-09T06:39:02;20.90;99.90
38456;DHT22;24237;50.106;20.014;2022-09-09T06:41:29;20.70;99.90
38456;DHT22;24237;50.106;20.014;2022-09-09T06:43:56;20.70;99.90
38456;DHT22;24237;50.106;20.014;2022-09-09T06:46:26;20.70;99.90
38456;DHT22;24237;50.106;20.014;2022-09-09T06:48:53;20.90;99.90
38456;DHT22;24237;50.106;20.014;2022-09-09T06:51:21;20.80;99.90
38456;DHT22;24237;50.106;20.014;2022-09-09T06:53:49;20.80;99.90
38456;DHT22;24237;50.106;20.014;2022-09-09T06:56:38;20.90;99.90
38456;DHT22;24237;50.106;20.014;2022-09-09T06:59:07;21.20;99.90
38456;DHT22;24237;50.106;20.014;2022-09-09T07:01:36;20.90;99.90
38456;DHT22;24237;50.106;20.014;2022-09-09T07:04:11;21.00;99.90
38456;DHT22;24237;50.106;20.014;2022-09-09T07:06:42;21.00;99.90
38456;DHT22;24237;50.106;20.014;2022-09-09T07:09:13;21.20;99.90
38456;DHT22;24237;50.106;20.014;2022-09-09T07:11:44;21.20;99.90
38456;DHT22;24237;50.106;20.014;2022-09-09T07:14:10;21.00;99.90
38456;DHT22;24237;50.106;20.014;2022-09-09T07:16:40;21.30;99.90
38456;DHT22;24237;50.106;20.014;2022-09-09T07:19:05;21.00;99.90
38456;DHT22;24237;50.106;20.014;2022-09-09T07:21:34;20.70;99.90
38456;DHT22;24237;50.106;20.014;2022-09-09T07:24:00;20.70;99.90
38456;DHT22;24237;50.106;20.014;2022-09-09T07:26:28;21.00;99.90
38456;DHT22;24237;50.106;20.014;2022-09-09T07:29:03;20.90;99.90
38456;DHT22;24237;50.106;20.014;2022-09-09T07:31:34;21.00;99.90
38456;DHT22;24237;50.106;20.014;2022-09-09T07:34:00;21.40;99.90
38456;DHT22;24237;50.106;20.014;2022-09-09T07:36:35;21.30;99.90
38456;DHT22;24237;50.106;20.014;2022-09-09T07:39:07;21.40;99.90
38456;DHT22;24237;50.106;20.014;2022-09-09T07:41:34;21.30;99.90
38456;DHT22;24237;50.106;20.014;2022-09-09T07:44:05;21.40;99.90
38456;DHT22;24237;50.106;20.014;2022-09-09T07:46:32;21.40;99.90
38456;DHT22;24237;50.106;20.014;2022-09-09T07:48:57;21.40;99.90
38456;DHT22;24237;50.106;20.014;2022-09-09T07:51:25;21.30;99.90
38456;DHT22;24237;50.106;20.014;2022-09-09T07:54:00;21.60;99.90
38456;DHT22;24237;50.106;20.014;2022-09-09T07:56:28;21.60;99.90
38456;DHT22;24237;50.106;20.014;2022-09-09T07:58:54;21.70;99.90
38456;DHT22;24237;50.106;20.014;2022-09-09T08:04:04;22.20;99.90
38456;DHT22;24237;50.106;20.014;2022-09-09T08:06:39;22.10;99.90
38456;DHT22;24237;50.106;20.014;2022-09-09T08:09:06;22.30;99.90
38456;DHT22;24237;50.106;20.014;2022-09-09T08:11:32;22.50;99.90
38456;DHT22;24237;50.106;20.014;2022-09-09T08:14:02;22.50;99.90
38456;DHT22;24237;50.106;20.014;2022-09-09T08:16:30;22.70;99.90
38456;DHT22;24237;50.106;20.014;2022-09-09T08:18:57;22.60;99.90
38456;DHT22;24237;50.106;20.014;2022-09-09T08:21:28;22.70;99.90
38456;DHT22;24237;50.106;20.014;2022-09-09T08:23:58;22.80;99.90
38456;DHT22;24237;50.106;20.014;2022-09-09T08:26:32;22.80;99.90
38456;DHT22;24237;50.106;20.014;2022-09-09T08:29:00;22.80;99.90
38456;DHT22;24237;50.106;20.014;2022-09-09T08:31:31;23.00;99.90
38456;DHT22;24237;50.106;20.014;2022-09-09T08:34:00;23.10;99.90
38456;DHT22;24237;50.106;20.014;2022-09-09T08:36:38;23.40;99.90
38456;DHT22;24237;50.106;20.014;2022-09-09T08:39:12;23.50;99.90
38456;DHT22;24237;50.106;20.014;2022-09-09T08:45:01;23.50;99.90
38456;DHT22;24237;50.106;20.014;2022-09-09T08:48:02;23.10;99.90
38456;DHT22;24237;50.106;20.014;2022-09-09T08:50:39;23.20;99.90
38456;DHT22;24237;50.106;20.014;2022-09-09T08:53:25;23.60;99.90
38456;DHT22;24237;50.106;20.014;2022-09-09T08:56:02;23.70;99.90
38456;DHT22;24237;50.106;20.014;2022-09-09T08:58:40;23.50;99.90
38456;DHT22;24237;50.106;20.014;2022-09-09T09:01:41;23.70;99.90
38456;DHT22;24237;50.106;20.014;2022-09-09T09:10:45;24.00;99.90
38456;DHT22;24237;50.106;20.014;2022-09-09T09:18:44;24.10;99.90
38456;DHT22;24237;50.106;20.014;2022-09-09T09:21:29;23.90;99.90
38456;DHT22;24237;50.106;20.014;2022-09-09T09:24:00;24.10;99.90
38456;DHT22;24237;50.106;20.014;2022-09-09T09:26:47;24.20;99.90
38456;DHT22;24237;50.106;20.014;2022-09-09T09:29:15;24.50;99.90
38456;DHT22;24237;50.106;20.014;2022-09-09T09:32:11;25.00;99.90
38456;DHT22;24237;50.106;20.014;2022-09-09T09:34:56;25.10;99.90
38456;DHT22;24237;50.106;20.014;2022-09-09T09:37:30;25.40;99.90
38456;DHT22;24237;50.106;20.014;2022-09-09T09:40:08;25.20;99.90
38456;DHT22;24237;50.106;20.014;2022-09-09T09:42:34;25.50;99.90
38456;DHT22;24237;50.106;20.014;2022-09-09T09:45:42;25.40;99.90
38456;DHT22;24237;50.106;20.014;2022-09-09T09:48:12;25.40;99.90
38456;DHT22;24237;50.106;20.014;2022-09-09T09:51:06;25.30;99.90
38456;DHT22;24237;50.106;20.014;2022-09-09T09:53:35;24.70;99.90
38456;DHT22;24237;50.106;20.014;2022-09-09T09:56:08;24.50;99.90
38456;DHT22;24237;50.106;20.014;2022-09-09T09:58:51;24.40;99.90
38456;DHT22;24237;50.106;20.014;2022-09-09T10:04:22;24.20;99.90
38456;DHT22;24237;50.106;20.014;2022-09-09T10:06:57;24.80;99.90
38456;DHT22;24237;50.106;20.014;2022-09-09T10:09:26;25.00;99.90
38456;DHT22;24237;50.106;20.014;2022-09-09T10:16:00;25.90;99.90
38456;DHT22;24237;50.106;20.014;2022-09-09T10:18:58;26.30;99.90
38456;DHT22;24237;50.106;20.014;2022-09-09T10:24:16;26.30;99.90
38456;DHT22;24237;50.106;20.014;2022-09-09T10:29:28;25.60;99.60
38456;DHT22;24237;50.106;20.014;2022-09-09T10:32:06;25.30;99.60
38456;DHT22;24237;50.106;20.014;2022-09-09T10:34:41;25.80;99.90
38456;DHT22;24237;50.106;20.014;2022-09-09T10:37:32;25.90;99.90
38456;DHT22;24237;50.106;20.014;2022-09-09T10:52:20;27.20;98.60
38456;DHT22;24237;50.106;20.014;2022-09-09T10:55:02;27.30;97.80
38456;DHT22;24237;50.106;20.014;2022-09-09T10:57:58;27.40;97.60
38456;DHT22;24237;50.106;20.014;2022-09-09T11:00:53;27.10;97.90
38456;DHT22;24237;50.106;20.014;2022-09-09T11:03:25;27.40;97.20
38456;DHT22;24237;50.106;20.014;2022-09-09T11:06:00;27.30;97.00
38456;DHT22;24237;50.106;20.014;2022-09-09T11:08:31;27.30;96.30
38456;DHT22;24237;50.106;20.014;2022-09-09T11:14:03;27.50;97.20
38456;DHT22;24237;50.106;20.014;2022-09-09T11:19:52;28.40;96.00
38456;DHT22;24237;50.106;20.014;2022-09-09T11:25:46;27.90;95.00
38456;DHT22;24237;50.106;20.014;2022-09-09T11:35:00;28.10;94.30
38456;DHT22;24237;50.106;20.014;2022-09-09T11:38:05;28.40;93.60
38456;DHT22;24237;50.106;20.014;2022-09-09T11:40:34;28.20;93.00
38456;DHT22;24237;50.106;20.014;2022-09-09T11:43:13;28.50;93.60
38456;DHT22;24237;50.106;20.014;2022-09-09T11:45:51;28.50;93.10
38456;DHT22;24237;50.106;20.014;2022-09-09T11:51:36;28.90;93.80
38456;DHT22;24237;50.106;20.014;2022-09-09T11:54:31;28.40;94.80
38456;DHT22;24237;50.106;20.014;2022-09-09T11:57:31;28.20;95.40
38456;DHT22;24237;50.106;20.014;2022-09-09T12:00:04;28.10;94.90
38456;DHT22;24237;50.106;20.014;2022-09-09T12:02:48;28.30;95.10
38456;DHT22;24237;50.106;20.014;2022-09-09T12:05:20;28.60;94.90
38456;DHT22;24237;50.106;20.014;2022-09-09T12:07:57;28.50;94.00
38456;DHT22;24237;50.106;20.014;2022-09-09T12:10:32;29.10;94.20
38456;DHT22;24237;50.106;20.014;2022-09-09T12:13:29;29.40;94.70
38456;DHT22;24237;50.106;20.014;2022-09-09T12:15:58;29.50;93.70
38456;DHT22;24237;50.106;20.014;2022-09-09T12:18:48;29.00;93.70
38456;DHT22;24237;50.106;20.014;2022-09-09T12:27:44;28.10;94.00
38456;DHT22;24237;50.106;20.014;2022-09-09T12:30:15;27.40;94.30
38456;DHT22;24237;50.106;20.014;2022-09-09T12:32:41;27.20;94.30
38456;DHT22;24237;50.106;20.014;2022-09-09T12:37:46;27.40;94.60
38456;DHT22;24237;50.106;20.014;2022-09-09T12:40:26;27.30;94.80
38456;DHT22;24237;50.106;20.014;2022-09-09T12:43:01;27.30;95.00
38456;DHT22;24237;50.106;20.014;2022-09-09T12:45:33;27.30;94.70
38456;DHT22;24237;50.106;20.014;2022-09-09T12:48:17;27.30;95.30
38456;DHT22;24237;50.106;20.014;2022-09-09T12:53:36;27.20;95.50
38456;DHT22;24237;50.106;20.014;2022-09-09T12:56:17;27.40;95.20
38456;DHT22;24237;50.106;20.014;2022-09-09T12:58:54;27.70;94.50
38456;DHT22;24237;50.106;20.014;2022-09-09T13:03:55;27.90;93.90
38456;DHT22;24237;50.106;20.014;2022-09-09T13:06:36;28.00;93.90
38456;DHT22;24237;50.106;20.014;2022-09-09T13:09:03;28.20;94.10
38456;DHT22;24237;50.106;20.014;2022-09-09T13:11:30;28.40;93.50
38456;DHT22;24237;50.106;20.014;2022-09-09T13:14:06;28.40;93.80
38456;DHT22;24237;50.106;20.014;2022-09-09T13:16:34;28.70;92.90
38456;DHT22;24237;50.106;20.014;2022-09-09T13:19:02;29.10;93.00
38456;DHT22;24237;50.106;20.014;2022-09-09T13:21:44;29.50;92.40
38456;DHT22;24237;50.106;20.014;2022-09-09T13:24:32;29.40;91.90
38456;DHT22;24237;50.106;20.014;2022-09-09T13:27:03;28.90;92.00
38456;DHT22;24237;50.106;20.014;2022-09-09T13:29:31;28.70;92.60
38456;DHT22;24237;50.106;20.014;2022-09-09T13:32:17;28.90;92.50
38456;DHT22;24237;50.106;20.014;2022-09-09T13:34:56;28.60;91.90
38456;DHT22;24237;50.106;20.014;2022-09-09T13:37:37;28.30;91.00
38456;DHT22;24237;50.106;20.014;2022-09-09T13:40:21;28.80;90.50
38456;DHT22;24237;50.106;20.014;2022-09-09T13:42:50;29.30;90.90
38456;DHT22;24237;50.106;20.014;2022-09-09T13:45:19;29.20;91.10
38456;DHT22;24237;50.106;20.014;2022-09-09T13:47:50;29.00;92.10
38456;DHT22;24237;50.106;20.014;2022-09-09T13:50:22;28.60;92.60
38456;DHT22;24237;50.106;20.014;2022-09-09T13:52:58;28.50;92.30
38456;DHT22;24237;50.106;20.014;2022-09-09T13:55:28;28.10;92.90
38456;DHT22;24237;50.106;20.014;2022-09-09T14:00:28;28.10;92.90
38456;DHT22;24237;50.106;20.014;2022-09-09T14:02:54;28.10;93.20
38456;DHT22;24237;50.106;20.014;2022-09-09T14:05:20;27.90;92.90
38456;DHT22;24237;50.106;20.014;2022-09-09T14:08:01;28.00;93.10
38456;DHT22;24237;50.106;20.014;2022-09-09T14:10:31;28.60;93.60
38456;DHT22;24237;50.106;20.014;2022-09-09T14:12:57;29.50;92.40
38456;DHT22;24237;50.106;20.014;2022-09-09T14:15:43;29.70;91.10
38456;DHT22;24237;50.106;20.014;2022-09-09T14:18:13;29.80;91.60
38456;DHT22;24237;50.106;20.014;2022-09-09T14:20:42;30.50;90.80
38456;DHT22;24237;50.106;20.014;2022-09-09T14:23:11;30.70;90.30
38456;DHT22;24237;50.106;20.014;2022-09-09T14:29:04;29.80;90.70
38456;DHT22;24237;50.106;20.014;2022-09-09T14:31:32;29.40;91.50
38456;DHT22;24237;50.106;20.014;2022-09-09T14:33:58;29.10;91.50
38456;DHT22;24237;50.106;20.014;2022-09-09T14:36:24;28.40;91.40
38456;DHT22;24237;50.106;20.014;2022-09-09T14:38:53;28.10;92.00
38456;DHT22;24237;50.106;20.014;2022-09-09T14:41:19;28.10;92.10
38456;DHT22;24237;50.106;20.014;2022-09-09T14:43:51;28.10;92.10
38456;DHT22;24237;50.106;20.014;2022-09-09T14:46:19;28.10;92.30
38456;DHT22;24237;50.106;20.014;2022-09-09T14:48:45;27.90;91.90
38456;DHT22;24237;50.106;20.014;2022-09-09T14:51:24;27.50;92.00
38456;DHT22;24237;50.106;20.014;2022-09-09T14:53:55;27.90;92.40
38456;DHT22;24237;50.106;20.014;2022-09-09T14:56:23;28.50;92.20
38456;DHT22;24237;50.106;20.014;2022-09-09T14:58:57;28.80;91.70
38456;DHT22;24237;50.106;20.014;2022-09-09T15:01:43;29.50;91.30
38456;DHT22;24237;50.106;20.014;2022-09-09T15:07:52;30.80;90.20
38456;DHT22;24237;50.106;20.014;2022-09-09T15:10:45;31.30;89.30
38456;DHT22;24237;50.106;20.014;2022-09-09T15:13:24;31.80;89.00
38456;DHT22;24237;50.106;20.014;2022-09-09T15:16:15;31.80;88.00
38456;DHT22;24237;50.106;20.014;2022-09-09T15:19:00;32.10;86.40
38456;DHT22;24237;50.106;20.014;2022-09-09T15:25:11;31.20;86.10
38456;DHT22;24237;50.106;20.014;2022-09-09T15:28:04;31.10;85.80
38456;DHT22;24237;50.106;20.014;2022-09-09T15:34:31;30.70;88.70
38456;DHT22;24237;50.106;20.014;2022-09-09T15:39:51;30.80;89.50
38456;DHT22;24237;50.106;20.014;2022-09-09T15:42:30;30.70;89.20
38456;DHT22;24237;50.106;20.014;2022-09-09T15:44:59;30.40;90.00
38456;DHT22;24237;50.106;20.014;2022-09-09T15:47:37;29.60;90.20
38456;DHT22;24237;50.106;20.014;2022-09-09T15:53:25;28.00;91.30
38456;DHT22;24237;50.106;20.014;2022-09-09T15:56:10;28.00;91.60
38456;DHT22;24237;50.106;20.014;2022-09-09T15:58:56;28.00;91.80
38456;DHT22;24237;50.106;20.014;2022-09-09T16:01:25;28.10;92.20
38456;DHT22;24237;50.106;20.014;2022-09-09T16:07:32;28.00;91.80
38456;DHT22;24237;50.106;20.014;2022-09-09T16:10:45;27.40;92.40
38456;DHT22;24237;50.106;20.014;2022-09-09T16:13:14;27.20;92.70
38456;DHT22;24237;50.106;20.014;2022-09-09T16:15:58;27.00;93.10
38456;DHT22;24237;50.106;20.014;2022-09-09T16:18:24;26.80;93.30
38456;DHT22;24237;50.106;20.014;2022-09-09T16:20:54;26.70;93.50
38456;DHT22;24237;50.106;20.014;2022-09-09T16:23:22;26.40;93.70
38456;DHT22;24237;50.106;20.014;2022-09-09T16:25:56;26.40;94.00
38456;DHT22;24237;50.106;20.014;2022-09-09T16:28:38;25.80;94.10
38456;DHT22;24237;50.106;20.014;2022-09-09T16:31:15;25.50;94.50
38456;DHT22;24237;50.106;20.014;2022-09-09T16:44:48;24.80;96.60
38456;DHT22;24237;50.106;20.014;2022-09-09T16:47:15;24.70;96.70
38456;DHT22;24237;50.106;20.014;2022-09-09T16:49:41;24.60;96.90
38456;DHT22;24237;50.106;20.014;2022-09-09T16:52:06;24.50;96.90
38456;DHT22;24237;50.106;20.014;2022-09-09T16:54:32;24.40;97.20
38456;DHT22;24237;50.106;20.014;2022-09-09T16:57:05;24.30;97.40
38456;DHT22;24237;50.106;20.014;2022-09-09T16:59:32;24.20;97.80
38456;DHT22;24237;50.106;20.014;2022-09-09T17:01:57;24.00;98.20
38456;DHT22;24237;50.106;20.014;2022-09-09T17:04:26;23.80;98.40
38456;DHT22;24237;50.106;20.014;2022-09-09T17:06:55;23.80;98.90
38456;DHT22;24237;50.106;20.014;2022-09-09T17:09:23;23.50;99.10
38456;DHT22;24237;50.106;20.014;2022-09-09T17:11:49;23.50;99.20
38456;DHT22;24237;50.106;20.014;2022-09-09T17:14:19;23.40;99.60
38456;DHT22;24237;50.106;20.014;2022-09-09T17:16:45;23.40;99.80
38456;DHT22;24237;50.106;20.014;2022-09-09T17:19:12;23.30;99.90
38456;DHT22;24237;50.106;20.014;2022-09-09T17:21:38;23.30;99.90
38456;DHT22;24237;50.106;20.014;2022-09-09T17:24:04;23.20;99.90
38456;DHT22;24237;50.106;20.014;2022-09-09T17:26:32;23.10;99.90
38456;DHT22;24237;50.106;20.014;2022-09-09T17:29:18;23.10;99.90
38456;DHT22;24237;50.106;20.014;2022-09-09T17:31:43;23.00;99.90
38456;DHT22;24237;50.106;20.014;2022-09-09T17:34:09;22.90;99.90
38456;DHT22;24237;50.106;20.014;2022-09-09T17:36:36;22.90;99.90
38456;DHT22;24237;50.106;20.014;2022-09-09T17:39:04;22.90;99.90
38456;DHT22;24237;50.106;20.014;2022-09-09T17:41:36;22.90;99.90
38456;DHT22;24237;50.106;20.014;2022-09-09T17:44:05;22.80;99.90
38456;DHT22;24237;50.106;20.014;2022-09-09T17:46:36;22.60;99.90
38456;DHT22;24237;50.106;20.014;2022-09-09T17:49:16;22.70;99.90
38456;DHT22;24237;50.106;20.014;2022-09-09T17:51:43;22.50;99.90
38456;DHT22;24237;50.106;20.014;2022-09-09T17:54:18;22.60;99.90
38456;DHT22;24237;50.106;20.014;2022-09-09T17:56:50;22.60;99.90
38456;DHT22;24237;50.106;20.014;2022-09-09T17:59:17;22.50;99.90
38456;DHT22;24237;50.106;20.014;2022-09-09T18:01:45;22.50;99.90
38456;DHT22;24237;50.106;20.014;2022-09-09T18:04:27;23.00;99.90
38456;DHT22;24237;50.106;20.014;2022-09-09T18:07:03;22.80;99.90
38456;DHT22;24237;50.106;20.014;2022-09-09T18:09:35;22.70;99.90
38456;DHT22;24237;50.106;20.014;2022-09-09T18:12:03;22.70;99.90
38456;DHT22;24237;50.106;20.014;2022-09-09T18:14:30;22.50;99.90
38456;DHT22;24237;50.106;20.014;2022-09-09T18:17:05;22.40;99.90